Time;durP1;ratioP1;P1;durP2;ratioP2;P2;SDS_P1;SDS_P2;PMS_P1;PMS_P2;Temp;Humidity;BMP_temperature;BMP_pressure;BME280_temperature;BME280_humidity;BME280_pressure;Samples;Min_cycle;Max_cycle;Signal;HPM_P1;HPM_P2
2021/01/30 00:00:46;;;;;;;9.93;6.72;;;1.50;89.90;;;;;;5060274;28;20056;-58
2021/01/30 00:03:13;;;;;;;9.43;6.75;;;1.60;88.10;;;;;;5065822;28;20045;-59
2021/01/30 00:05:40;;;;;;;8.38;5.88;;;1.70;87.80;;;;;;5059816;28;20052;-59
2021/01/30 00:08:07;;;;;;;9.30;6.22;;;1.70;87.10;;;;;;5065355;28;20041;-58
2021/01/30 00:10:32;;;;;;;7.82;5.18;;;1.60;87.70;;;;;;5059802;28;20064;-59
2021/01/30 00:12:58;;;;;;;8.57;5.72;;;1.50;87.80;;;;;;5055328;28;20051;-59
2021/01/30 00:15:28;;;;;;;10.00;5.15;;;1.40;89.60;;;;;;5048371;28;20044;-59
2021/01/30 00:17:55;;;;;;;8.25;5.80;;;1.40;89.30;;;;;;5053632;28;20046;-59
2021/01/30 00:20:27;;;;;;;7.07;4.82;;;1.40;90.00;;;;;;5046601;28;20128;-59
2021/01/30 00:22:54;;;;;;;7.85;5.25;;;1.40;89.80;;;;;;5065279;28;20041;-59
2021/01/30 00:25:24;;;;;;;8.85;5.78;;;1.40;89.60;;;;;;5057829;28;20056;-59
2021/01/30 00:27:50;;;;;;;7.68;5.32;;;1.50;89.10;;;;;;5033853;28;20090;-58
2021/01/30 00:30:19;;;;;;;6.95;5.13;;;1.50;89.70;;;;;;5054603;28;20084;-58
2021/01/30 00:32:46;;;;;;;8.63;5.57;;;1.50;89.00;;;;;;5058970;28;20195;-58
2021/01/30 00:35:12;;;;;;;8.35;5.90;;;1.50;89.10;;;;;;5058162;28;20055;-58
2021/01/30 00:37:38;;;;;;;7.63;5.47;;;1.40;89.60;;;;;;5056762;28;20392;-58
2021/01/30 00:40:06;;;;;;;7.63;5.35;;;1.50;89.40;;;;;;5056741;28;20048;-59
2021/01/30 00:42:32;;;;;;;9.07;5.03;;;1.50;89.50;;;;;;5065413;28;20043;-56
2021/01/30 00:44:58;;;;;;;9.85;5.75;;;1.50;89.70;;;;;;5057034;28;20049;-55
2021/01/30 00:47:24;;;;;;;6.97;4.93;;;1.50;89.80;;;;;;5049312;28;20049;-55
2021/01/30 00:49:49;;;;;;;7.13;4.80;;;1.60;88.90;;;;;;5058627;28;20101;-55
2021/01/30 00:52:17;;;;;;;7.40;4.78;;;1.50;89.20;;;;;;5058258;28;20045;-56
2021/01/30 00:54:44;;;;;;;6.15;4.28;;;1.60;89.40;;;;;;5059480;28;20033;-56
2021/01/30 00:57:10;;;;;;;8.75;5.03;;;1.60;89.30;;;;;;5056018;28;20041;-55
2021/01/30 00:59:36;;;;;;;9.18;4.72;;;1.50;89.70;;;;;;5063137;28;20098;-56
2021/01/30 01:02:03;;;;;;;7.15;4.55;;;1.50;90.10;;;;;;5058159;28;20033;-55
2021/01/30 01:04:29;;;;;;;8.20;4.60;;;1.60;89.50;;;;;;5055065;28;20041;-57
2021/01/30 01:06:55;;;;;;;7.50;3.88;;;1.60;88.90;;;;;;5047295;28;20055;-56
2021/01/30 01:09:21;;;;;;;7.45;4.40;;;1.60;89.00;;;;;;5065946;28;20050;-56
2021/01/30 01:11:50;;;;;;;7.45;4.35;;;1.60;89.20;;;;;;5063608;28;20061;-56
2021/01/30 01:14:22;;;;;;;10.32;4.57;;;1.60;89.40;;;;;;5064004;28;20041;-54
2021/01/30 01:16:49;;;;;;;10.10;4.70;;;1.60;88.70;;;;;;5065235;28;20112;-54
2021/01/30 01:19:16;;;;;;;8.40;4.43;;;1.50;89.60;;;;;;5052195;28;20067;-55
2021/01/30 01:21:42;;;;;;;7.03;4.50;;;1.60;89.30;;;;;;5072135;28;20652;-53
2021/01/30 01:24:09;;;;;;;8.23;4.70;;;1.60;89.60;;;;;;5058901;28;20235;-54
2021/01/30 01:26:36;;;;;;;9.13;4.20;;;1.60;89.50;;;;;;5059208;28;20071;-54
2021/01/30 01:29:02;;;;;;;6.03;3.90;;;1.60;89.50;;;;;;5052389;28;20393;-54
2021/01/30 01:31:28;;;;;;;8.88;4.68;;;1.60;89.80;;;;;;5049630;28;20033;-57
2021/01/30 01:33:53;;;;;;;8.70;4.72;;;1.60;89.50;;;;;;5061289;28;20051;-57
2021/01/30 01:36:21;;;;;;;8.43;4.32;;;1.60;89.50;;;;;;5065662;28;20481;-57
2021/01/30 01:38:47;;;;;;;8.63;3.97;;;1.50;90.00;;;;;;5050772;28;20033;-57
2021/01/30 01:41:13;;;;;;;9.70;5.20;;;1.50;90.00;;;;;;5051816;28;20048;-57
2021/01/30 01:43:39;;;;;;;9.40;4.90;;;1.60;90.10;;;;;;5056988;28;20439;-57
2021/01/30 01:46:08;;;;;;;9.73;4.70;;;1.60;90.00;;;;;;5036005;28;20056;-57
2021/01/30 01:48:43;;;;;;;8.70;4.75;;;1.60;89.60;;;;;;5048642;28;20541;-58
2021/01/30 01:51:14;;;;;;;8.25;4.80;;;1.70;89.10;;;;;;5041491;28;20180;-56
2021/01/30 01:53:43;;;;;;;10.93;4.68;;;1.70;89.10;;;;;;5053997;28;20445;-57
2021/01/30 01:56:15;;;;;;;9.27;4.53;;;1.60;89.20;;;;;;5052175;28;20051;-57
2021/01/30 01:58:45;;;;;;;9.27;5.35;;;1.60;88.90;;;;;;5045444;28;20052;-57
2021/01/30 02:01:12;;;;;;;9.00;4.68;;;1.50;90.00;;;;;;5057407;28;20048;-57
2021/01/30 02:03:43;;;;;;;8.38;4.97;;;1.60;89.90;;;;;;5050486;28;20037;-54
2021/01/30 02:06:09;;;;;;;9.10;4.68;;;1.50;90.20;;;;;;5067201;28;20040;-58
2021/01/30 02:08:35;;;;;;;12.10;5.65;;;1.50;89.90;;;;;;5060684;28;20036;-57
2021/01/30 02:11:01;;;;;;;11.23;5.57;;;1.50;89.90;;;;;;5061535;28;20120;-58
2021/01/30 02:13:40;;;;;;;10.05;5.47;;;1.50;89.90;;;;;;5059628;28;20050;-57
2021/01/30 02:16:39;;;;;;;10.32;5.05;;;1.60;88.90;;;;;;5065744;28;20595;-57
2021/01/30 02:19:39;;;;;;;9.05;5.10;;;1.50;89.30;;;;;;5059134;28;20049;-58
2021/01/30 02:22:42;;;;;;;9.48;5.65;;;1.40;89.80;;;;;;5059097;28;20109;-56
2021/01/30 02:25:27;;;;;;;9.00;4.80;;;1.40;90.10;;;;;;5050303;28;20507;-57
2021/01/30 02:28:02;;;;;;;10.73;5.63;;;1.40;90.30;;;;;;5062584;28;20048;-56
2021/01/30 02:30:36;;;;;;;9.35;5.30;;;1.40;90.30;;;;;;5063397;28;20077;-56
2021/01/30 02:33:08;;;;;;;10.07;5.47;;;1.40;90.20;;;;;;5053134;28;20508;-55
2021/01/30 02:36:15;;;;;;;8.65;5.38;;;1.40;90.40;;;;;;5060017;28;20044;-55
2021/01/30 02:38:48;;;;;;;13.63;6.25;;;1.50;89.70;;;;;;5067326;28;20120;-55
2021/01/30 02:41:36;;;;;;;11.45;5.35;;;1.50;90.20;;;;;;5048056;28;20044;-57
2021/01/30 02:44:04;;;;;;;10.13;6.00;;;1.50;90.40;;;;;;5052616;28;20044;-57
2021/01/30 02:46:37;;;;;;;11.50;5.50;;;1.40;90.30;;;;;;5059071;28;20097;-56
2021/01/30 02:49:12;;;;;;;10.98;6.28;;;1.40;90.70;;;;;;5055212;28;20052;-57
2021/01/30 02:51:42;;;;;;;10.75;5.75;;;1.50;90.60;;;;;;5058201;28;20045;-57
2021/01/30 02:54:09;;;;;;;11.57;5.72;;;1.50;90.50;;;;;;5064043;28;20048;-57
2021/01/30 02:56:35;;;;;;;10.25;5.63;;;1.50;90.30;;;;;;5058847;28;20066;-55
2021/01/30 02:59:16;;;;;;;13.13;5.97;;;1.60;89.80;;;;;;5067284;28;20049;-55
2021/01/30 03:01:42;;;;;;;10.45;5.63;;;1.60;89.70;;;;;;5055668;28;20748;-56
2021/01/30 03:04:20;;;;;;;11.07;6.75;;;1.60;90.40;;;;;;5058692;28;20048;-57
2021/01/30 03:07:18;;;;;;;12.70;6.60;;;1.50;90.20;;;;;;5050235;28;20033;-56
2021/01/30 03:10:03;;;;;;;10.52;5.82;;;1.60;90.00;;;;;;5059552;28;20098;-57
2021/01/30 03:12:54;;;;;;;11.32;6.18;;;1.70;89.10;;;;;;5053000;28;20034;-58
2021/01/30 03:15:44;;;;;;;10.10;6.03;;;1.60;89.90;;;;;;5063633;28;20049;-56
2021/01/30 03:18:13;;;;;;;10.35;6.03;;;1.60;90.00;;;;;;5056049;28;20048;-57
2021/01/30 03:20:43;;;;;;;10.45;5.55;;;1.70;89.00;;;;;;5072135;28;20049;-56
2021/01/30 03:23:13;;;;;;;11.77;6.03;;;1.70;88.70;;;;;;5052387;28;20049;-56
2021/01/30 03:25:41;;;;;;;11.10;6.07;;;1.60;88.90;;;;;;5060795;28;20059;-57
2021/01/30 03:28:07;;;;;;;10.82;5.95;;;1.60;89.20;;;;;;5055473;28;20043;-57
2021/01/30 03:30:33;;;;;;;11.65;6.13;;;1.60;89.80;;;;;;5048142;28;20041;-56
2021/01/30 03:33:00;;;;;;;9.95;5.72;;;1.60;89.20;;;;;;5053168;28;20037;-56
2021/01/30 03:35:26;;;;;;;11.23;6.28;;;1.70;88.00;;;;;;5047518;28;20033;-57
2021/01/30 03:37:52;;;;;;;9.52;5.80;;;1.70;87.60;;;;;;5047548;28;20165;-56
2021/01/30 03:40:19;;;;;;;10.93;6.43;;;1.70;88.40;;;;;;5053014;28;21918;-57
2021/01/30 03:42:49;;;;;;;9.98;5.88;;;1.60;88.50;;;;;;5055231;28;20052;-57
2021/01/30 03:45:18;;;;;;;14.35;7.20;;;1.60;88.90;;;;;;5046040;28;20072;-57
2021/01/30 03:47:44;;;;;;;11.77;6.25;;;1.50;89.80;;;;;;5047682;28;20037;-57
2021/01/30 03:50:11;;;;;;;12.18;7.38;;;1.50;90.10;;;;;;5051116;28;20477;-57
2021/01/30 03:52:37;;;;;;;10.13;6.57;;;1.50;89.80;;;;;;5059451;28;20040;-57
2021/01/30 03:55:04;;;;;;;11.07;5.35;;;1.50;90.00;;;;;;5056962;28;20113;-56
2021/01/30 03:57:30;;;;;;;11.40;6.10;;;1.60;89.70;;;;;;5061893;28;20033;-57
2021/01/30 03:59:56;;;;;;;12.52;6.40;;;1.60;89.30;;;;;;5051633;28;20413;-57
2021/01/30 04:02:21;;;;;;;12.05;6.88;;;1.60;89.70;;;;;;5046036;28;20504;-56
2021/01/30 04:04:47;;;;;;;11.18;6.07;;;1.60;89.80;;;;;;5040090;28;20456;-57
2021/01/30 04:07:13;;;;;;;12.27;6.50;;;1.70;89.30;;;;;;5060282;28;20559;-54
2021/01/30 04:09:39;;;;;;;11.45;6.80;;;1.70;89.00;;;;;;5052149;28;20429;-54
2021/01/30 04:12:06;;;;;;;10.40;5.65;;;1.70;88.50;;;;;;5060542;28;20033;-52
2021/01/30 04:14:32;;;;;;;13.05;6.20;;;1.70;88.00;;;;;;5062184;28;20041;-52
2021/01/30 04:16:59;;;;;;;12.85;6.47;;;1.60;87.90;;;;;;5045502;28;20052;-56
2021/01/30 04:19:26;;;;;;;14.43;6.72;;;1.50;88.70;;;;;;5054437;28;20037;-54
2021/01/30 04:21:53;;;;;;;13.73;7.45;;;1.50;89.10;;;;;;5056485;28;20045;-57
2021/01/30 04:24:19;;;;;;;12.13;6.88;;;1.60;88.30;;;;;;5051656;28;20055;-57
2021/01/30 04:26:49;;;;;;;10.82;6.35;;;1.60;88.40;;;;;;5056363;28;20120;-57
2021/01/30 04:29:16;;;;;;;10.65;6.13;;;1.50;88.30;;;;;;5047261;28;20450;-57
2021/01/30 04:31:42;;;;;;;12.23;6.60;;;1.50;88.00;;;;;;5045236;28;20045;-57
2021/01/30 04:34:09;;;;;;;11.30;6.25;;;1.50;88.10;;;;;;5052599;28;20105;-57
2021/01/30 04:36:34;;;;;;;11.25;6.78;;;1.50;88.20;;;;;;5047416;28;20045;-57
2021/01/30 04:39:00;;;;;;;11.93;6.47;;;1.40;88.70;;;;;;5045997;28;20060;-56
2021/01/30 04:41:40;;;;;;;10.82;6.13;;;1.50;87.60;;;;;;5052709;28;20085;-57
2021/01/30 04:44:15;;;;;;;10.60;6.10;;;1.50;87.30;;;;;;5038758;28;20040;-56
2021/01/30 04:46:50;;;;;;;12.30;6.63;;;1.40;88.30;;;;;;5060776;28;20032;-56
2021/01/30 04:49:28;;;;;;;13.10;6.80;;;1.50;88.50;;;;;;5051787;28;20055;-56
2021/01/30 04:52:04;;;;;;;11.70;6.15;;;1.30;88.70;;;;;;5056654;28;20040;-57
2021/01/30 04:54:44;;;;;;;12.45;6.50;;;1.40;88.30;;;;;;5055839;28;20028;-56
2021/01/30 04:57:26;;;;;;;10.40;6.13;;;1.40;87.80;;;;;;5058176;28;20051;-55
2021/01/30 05:00:23;;;;;;;12.02;6.20;;;1.50;87.50;;;;;;5058556;28;20048;-56
2021/01/30 05:03:09;;;;;;;11.93;6.32;;;1.40;87.80;;;;;;5054231;28;20029;-56
2021/01/30 05:05:36;;;;;;;11.77;6.30;;;1.40;88.40;;;;;;5045123;28;20041;-56
2021/01/30 05:08:09;;;;;;;11.93;7.22;;;1.40;88.70;;;;;;5061523;28;20069;-56
2021/01/30 05:10:45;;;;;;;12.18;7.35;;;1.30;88.90;;;;;;5039357;28;20045;-57
2021/01/30 05:13:22;;;;;;;13.52;7.38;;;1.40;88.80;;;;;;5053227;28;20045;-56
2021/01/30 05:15:55;;;;;;;13.40;7.47;;;1.40;88.40;;;;;;5043110;28;20517;-57
2021/01/30 05:18:23;;;;;;;14.10;7.65;;;1.40;89.60;;;;;;5046951;28;20045;-57
2021/01/30 05:21:04;;;;;;;12.65;7.22;;;1.30;90.00;;;;;;5053041;28;20448;-56
2021/01/30 05:23:33;;;;;;;12.57;7.60;;;1.30;90.30;;;;;;5046006;28;20098;-56
2021/01/30 05:26:08;;;;;;;13.07;7.55;;;1.30;89.80;;;;;;5044324;28;20050;-56
2021/01/30 05:28:48;;;;;;;13.82;7.80;;;1.40;89.50;;;;;;5052151;28;20071;-58
2021/01/30 05:32:01;;;;;;;13.20;7.75;;;1.40;89.70;;;;;;5052981;28;20107;-58
2021/01/30 05:34:33;;;;;;;12.65;7.03;;;1.30;89.30;;;;;;4990727;28;20089;-56
2021/01/30 05:37:03;;;;;;;12.30;7.22;;;1.30;89.60;;;;;;4995731;28;20042;-57
2021/01/30 05:40:08;;;;;;;11.68;7.00;;;1.30;89.00;;;;;;5027882;28;20071;-58
2021/01/30 05:43:01;;;;;;;11.27;6.18;;;1.30;88.70;;;;;;5039823;28;20056;-56
2021/01/30 05:45:50;;;;;;;12.77;6.82;;;1.40;88.30;;;;;;5042459;28;20485;-56
2021/01/30 05:48:49;;;;;;;12.77;7.22;;;1.30;88.90;;;;;;5045855;28;20037;-56
2021/01/30 05:51:29;;;;;;;13.38;7.57;;;1.30;89.40;;;;;;5022527;28;20120;-56
2021/01/30 05:53:55;;;;;;;10.48;5.82;;;1.30;89.80;;;;;;5045916;28;20065;-56
2021/01/30 05:56:21;;;;;;;13.05;7.18;;;1.30;89.50;;;;;;5046416;28;20524;-58
2021/01/30 05:58:48;;;;;;;13.45;8.00;;;1.40;89.30;;;;;;5057129;28;20036;-56
2021/01/30 06:01:16;;;;;;;12.50;7.43;;;1.30;89.70;;;;;;5055622;28;20028;-57
2021/01/30 06:04:08;;;;;;;12.15;6.60;;;1.30;89.90;;;;;;5061011;28;20232;-57
2021/01/30 06:06:55;;;;;;;10.68;6.57;;;1.30;89.20;;;;;;5058410;28;20045;-56
2021/01/30 06:09:42;;;;;;;10.93;6.60;;;1.40;88.00;;;;;;5055570;28;20174;-56
2021/01/30 06:12:29;;;;;;;11.60;6.13;;;1.40;88.20;;;;;;5052483;28;20063;-56
2021/01/30 06:15:14;;;;;;;15.60;7.25;;;1.40;88.70;;;;;;5051454;28;20091;-57
2021/01/30 06:17:40;;;;;;;11.32;6.65;;;1.40;88.70;;;;;;5051536;28;20040;-55
2021/01/30 06:20:14;;;;;;;13.20;7.68;;;1.30;88.90;;;;;;5048935;28;20037;-56
2021/01/30 06:22:40;;;;;;;13.88;7.25;;;1.30;89.50;;;;;;5049282;28;20212;-56
2021/01/30 06:25:30;;;;;;;12.65;7.30;;;1.30;88.90;;;;;;5046815;28;20049;-55
2021/01/30 06:28:02;;;;;;;12.65;7.18;;;1.20;90.10;;;;;;5040472;28;20087;-56
2021/01/30 06:30:36;;;;;;;13.95;7.07;;;1.30;89.80;;;;;;5049058;28;20103;-57
2021/01/30 06:33:17;;;;;;;13.98;7.78;;;1.20;90.00;;;;;;5049251;28;20045;-56
2021/01/30 06:35:43;;;;;;;14.55;7.22;;;1.20;90.00;;;;;;5055674;28;20048;-57
2021/01/30 06:38:17;;;;;;;14.02;7.00;;;1.20;90.20;;;;;;5046731;28;20060;-55
2021/01/30 06:40:59;;;;;;;12.90;7.50;;;1.40;88.90;;;;;;5048043;28;20539;-58
2021/01/30 06:43:35;;;;;;;15.48;8.45;;;1.40;87.80;;;;;;5054851;28;20041;-57
2021/01/30 06:46:05;;;;;;;13.60;7.95;;;1.30;88.80;;;;;;5053887;28;20491;-56
2021/01/30 06:48:36;;;;;;;13.85;8.18;;;1.20;89.10;;;;;;5050206;28;20060;-56
2021/01/30 06:51:19;;;;;;;15.00;8.45;;;1.20;89.10;;;;;;5052692;28;20049;-56
2021/01/30 06:53:44;;;;;;;12.48;6.75;;;1.20;89.10;;;;;;5042097;28;20504;-57
2021/01/30 06:56:12;;;;;;;13.90;7.63;;;1.30;88.00;;;;;;5053354;28;20045;-58
2021/01/30 06:58:41;;;;;;;13.23;6.80;;;1.30;88.40;;;;;;5051623;28;20143;-56
2021/01/30 07:01:12;;;;;;;13.50;7.13;;;1.20;87.70;;;;;;5051754;28;20039;-56
2021/01/30 07:03:53;;;;;;;12.38;6.25;;;1.30;86.80;;;;;;5053399;28;20045;-57
2021/01/30 07:06:29;;;;;;;12.45;7.10;;;1.40;86.80;;;;;;5045563;28;20044;-56
2021/01/30 07:09:15;;;;;;;12.25;6.95;;;1.40;86.50;;;;;;5039334;28;20098;-56
2021/01/30 07:11:53;;;;;;;13.48;8.02;;;1.20;87.40;;;;;;5055480;28;20033;-56
2021/01/30 07:14:27;;;;;;;14.32;7.85;;;1.20;88.30;;;;;;5063250;28;20446;-56
2021/01/30 07:16:57;;;;;;;13.23;7.25;;;1.40;86.40;;;;;;5048055;28;20052;-56
2021/01/30 07:19:30;;;;;;;11.77;4.95;;;1.30;87.00;;;;;;5058124;28;20043;-56
2021/01/30 07:22:02;;;;;;;12.75;6.18;;;1.40;86.20;;;;;;5060501;28;20513;-58
2021/01/30 07:24:37;;;;;;;11.50;6.10;;;1.30;85.80;;;;;;5046408;28;20056;-57
2021/01/30 07:27:22;;;;;;;10.82;6.18;;;1.30;85.90;;;;;;5058723;28;20484;-55
2021/01/30 07:30:01;;;;;;;13.13;6.82;;;1.30;85.60;;;;;;5052999;28;20340;-55
2021/01/30 07:32:32;;;;;;;12.20;6.80;;;1.30;85.80;;;;;;5059937;28;20439;-57
2021/01/30 07:35:10;;;;;;;12.68;7.45;;;1.20;86.00;;;;;;5046599;28;20041;-56
2021/01/30 07:38:12;;;;;;;12.13;6.07;;;1.20;86.90;;;;;;5046593;28;20033;-56
2021/01/30 07:40:55;;;;;;;17.52;7.13;;;1.30;86.10;;;;;;5053921;28;20093;-58
2021/01/30 07:43:29;;;;;;;11.75;6.80;;;1.30;85.60;;;;;;5051748;28;20036;-57
2021/01/30 07:46:09;;;;;;;12.85;7.15;;;1.30;86.10;;;;;;5048134;28;20053;-56
2021/01/30 07:48:44;;;;;;;12.27;7.15;;;1.20;86.70;;;;;;5042867;28;20468;-55
2021/01/30 07:51:16;;;;;;;13.23;7.43;;;1.20;87.00;;;;;;5046757;28;20090;-56
2021/01/30 07:53:42;;;;;;;12.55;7.20;;;1.20;86.30;;;;;;5041126;28;20383;-55
2021/01/30 07:56:19;;;;;;;13.07;6.60;;;1.20;86.40;;;;;;5051382;28;20099;-52
2021/01/30 07:59:04;;;;;;;12.20;6.40;;;1.20;86.40;;;;;;5047519;28;20516;-55
2021/01/30 08:02:03;;;;;;;13.38;6.75;;;1.30;85.70;;;;;;5044941;28;20088;-54
2021/01/30 08:04:46;;;;;;;12.60;6.60;;;1.20;86.60;;;;;;5039162;28;20508;-53
2021/01/30 08:07:34;;;;;;;16.58;6.90;;;1.20;86.30;;;;;;5049568;28;20041;-56
2021/01/30 08:10:11;;;;;;;15.23;8.02;;;1.20;86.90;;;;;;5056442;28;20048;-56
2021/01/30 08:13:18;;;;;;;13.48;7.32;;;1.10;87.80;;;;;;5048419;28;20066;-56
2021/01/30 08:15:54;;;;;;;14.43;7.55;;;1.10;87.30;;;;;;5047907;28;20068;-56
2021/01/30 08:18:31;;;;;;;11.40;6.57;;;1.20;87.00;;;;;;5044269;28;20072;-56
2021/01/30 08:21:30;;;;;;;15.85;7.68;;;1.10;87.20;;;;;;5041382;28;20099;-56
2021/01/30 08:24:02;;;;;;;15.88;7.70;;;1.20;87.10;;;;;;5049615;28;20040;-54
2021/01/30 08:26:42;;;;;;;14.13;8.07;;;1.10;87.20;;;;;;5046664;28;20056;-55
2021/01/30 08:29:19;;;;;;;15.50;7.72;;;1.10;88.00;;;;;;5043944;28;20047;-56
2021/01/30 08:31:58;;;;;;;11.57;6.82;;;1.10;88.60;;;;;;5047555;28;20099;-56
2021/01/30 08:34:28;;;;;;;13.27;7.55;;;1.10;88.50;;;;;;5054834;28;20041;-55
2021/01/30 08:36:57;;;;;;;15.57;7.80;;;1.00;89.30;;;;;;5045436;28;20049;-56
2021/01/30 08:39:30;;;;;;;14.55;7.25;;;1.20;88.80;;;;;;5050901;28;20055;-55
2021/01/30 08:42:04;;;;;;;16.25;8.07;;;1.30;87.30;;;;;;5044346;28;20485;-54
2021/01/30 08:44:36;;;;;;;13.18;7.50;;;1.30;87.30;;;;;;5051191;28;20036;-56
2021/01/30 08:47:17;;;;;;;15.15;7.88;;;1.20;88.00;;;;;;5052015;28;20448;-56
2021/01/30 08:50:31;;;;;;;13.32;6.78;;;1.20;88.90;;;;;;5053272;28;20037;-56
2021/01/30 08:53:12;;;;;;;13.35;7.13;;;1.40;87.30;;;;;;5049564;28;20048;-56
2021/01/30 08:55:44;;;;;;;15.07;7.30;;;1.40;85.80;;;;;;5047475;28;20377;-56
2021/01/30 08:58:37;;;;;;;12.55;6.50;;;1.30;86.90;;;;;;5050413;28;20072;-56
2021/01/30 09:01:27;;;;;;;12.65;7.00;;;1.40;85.40;;;;;;5043567;28;20072;-56
2021/01/30 09:03:58;;;;;;;12.68;6.70;;;1.30;86.30;;;;;;5041759;28;20041;-56
2021/01/30 09:06:39;;;;;;;15.13;8.00;;;1.40;85.50;;;;;;5035543;28;20033;-56
2021/01/30 09:09:14;;;;;;;14.55;7.80;;;1.20;87.10;;;;;;5050671;28;20087;-56
2021/01/30 09:11:47;;;;;;;16.25;7.38;;;1.20;88.20;;;;;;5037778;28;20455;-56
2021/01/30 09:14:18;;;;;;;;;;;1.20;88.00;;;;;;5048181;28;20119;-56
2021/01/30 09:16:56;;;;;;;15.55;7.82;;;1.20;88.60;;;;;;5032580;28;19986;-56
2021/01/30 09:19:37;;;;;;;13.93;7.65;;;1.20;87.40;;;;;;5040512;28;20048;-56
2021/01/30 09:22:12;;;;;;;14.02;7.50;;;1.30;86.40;;;;;;5036755;28;20042;-55
2021/01/30 09:25:22;;;;;;;14.43;7.95;;;1.20;87.20;;;;;;5034582;28;20037;-56
2021/01/30 09:28:13;;;;;;;14.27;7.43;;;1.30;87.90;;;;;;5030826;28;20532;-56
2021/01/30 09:30:51;;;;;;;14.73;8.00;;;1.30;86.50;;;;;;5040213;28;20052;-56
2021/01/30 09:33:26;;;;;;;13.85;8.35;;;1.30;87.30;;;;;;5035881;28;20033;-56
2021/01/30 09:36:09;;;;;;;15.55;7.75;;;1.20;88.30;;;;;;5030033;28;20120;-57
2021/01/30 09:38:41;;;;;;;13.02;6.68;;;1.30;88.70;;;;;;5038294;28;20045;-57
2021/01/30 09:41:23;;;;;;;15.38;7.60;;;1.40;85.60;;;;;;5032513;28;20068;-57
2021/01/30 09:44:01;;;;;;;13.57;6.88;;;1.50;84.70;;;;;;5035733;28;20047;-56
2021/01/30 09:46:31;;;;;;;13.80;7.53;;;1.40;85.10;;;;;;5038443;28;20083;-55
2021/01/30 09:48:57;;;;;;;15.70;8.40;;;1.30;85.40;;;;;;5032056;28;20033;-55
2021/01/30 09:51:23;;;;;;;16.13;8.70;;;1.30;84.90;;;;;;5044368;28;20037;-55
2021/01/30 09:53:53;;;;;;;20.38;9.20;;;1.30;84.60;;;;;;5037528;28;20044;-54
2021/01/30 09:56:20;;;;;;;18.20;8.93;;;1.30;84.00;;;;;;5033716;28;20053;-55
2021/01/30 09:58:56;;;;;;;16.02;8.60;;;1.30;84.20;;;;;;5041797;28;20061;-55
2021/01/30 10:01:45;;;;;;;15.65;7.78;;;1.20;85.50;;;;;;5039628;28;20040;-55
2021/01/30 10:04:27;;;;;;;14.02;7.93;;;1.20;84.90;;;;;;5040717;28;20111;-55
2021/01/30 10:07:05;;;;;;;17.30;8.32;;;1.30;83.30;;;;;;5049926;28;20053;-52
2021/01/30 10:09:46;;;;;;;18.02;9.93;;;1.20;84.50;;;;;;5046328;28;20441;-56
2021/01/30 10:12:15;;;;;;;17.35;9.80;;;1.20;85.30;;;;;;5046883;28;20147;-55
2021/01/30 10:14:47;;;;;;;16.30;9.15;;;1.30;84.70;;;;;;5044015;28;20119;-55
2021/01/30 10:17:29;;;;;;;19.45;10.07;;;1.30;83.80;;;;;;5046567;28;20052;-56
2021/01/30 10:20:04;;;;;;;17.08;9.32;;;1.30;84.70;;;;;;5039771;28;20652;-55
2021/01/30 10:22:48;;;;;;;19.33;9.65;;;1.30;85.60;;;;;;5038111;28;20048;-56
2021/01/30 10:25:26;;;;;;;19.55;10.57;;;1.20;86.20;;;;;;5042945;28;20048;-56
2021/01/30 10:28:12;;;;;;;20.10;11.18;;;1.30;85.90;;;;;;5026107;28;20177;-56
2021/01/30 10:30:39;;;;;;;17.92;10.38;;;1.30;86.50;;;;;;5039442;28;20041;-56
2021/01/30 10:33:10;;;;;;;17.00;8.95;;;1.30;86.40;;;;;;5043282;28;20511;-56
2021/01/30 10:35:48;;;;;;;17.80;8.82;;;1.30;84.00;;;;;;5033630;28;20048;-56
2021/01/30 10:38:26;;;;;;;17.52;8.50;;;1.40;81.90;;;;;;5042706;28;20033;-56
2021/01/30 10:41:01;;;;;;;15.80;8.95;;;1.40;81.60;;;;;;5037632;28;20079;-55
2021/01/30 10:43:35;;;;;;;15.85;8.68;;;1.30;81.90;;;;;;5044541;28;20033;-56
2021/01/30 10:46:14;;;;;;;18.02;9.63;;;1.10;83.20;;;;;;5047177;28;20041;-55
2021/01/30 10:48:40;;;;;;;16.27;8.35;;;1.10;83.70;;;;;;5039772;28;20041;-54
2021/01/30 10:51:09;;;;;;;17.73;9.45;;;1.20;83.30;;;;;;5051374;28;20041;-55
2021/01/30 10:53:37;;;;;;;21.35;10.32;;;1.30;83.50;;;;;;5045060;28;20076;-56
2021/01/30 10:56:22;;;;;;;15.65;9.05;;;1.30;84.80;;;;;;5044383;28;20501;-56
2021/01/30 10:58:57;;;;;;;20.65;9.65;;;1.40;82.40;;;;;;5043064;28;20049;-53
2021/01/30 11:01:29;;;;;;;16.85;9.30;;;1.30;83.30;;;;;;5041722;28;20041;-56
2021/01/30 11:04:00;;;;;;;16.40;9.23;;;1.30;82.50;;;;;;5039070;28;20034;-56
2021/01/30 11:06:36;;;;;;;20.55;10.48;;;1.30;82.90;;;;;;5061396;28;20026;-56
2021/01/30 11:09:27;;;;;;;18.25;9.95;;;1.30;82.80;;;;;;5059811;28;20167;-56
2021/01/30 11:12:13;;;;;;;18.05;9.60;;;1.30;83.30;;;;;;5056539;28;20041;-56
2021/01/30 11:14:39;;;;;;;17.85;9.80;;;1.30;84.00;;;;;;5051320;28;20045;-54
2021/01/30 11:17:23;;;;;;;17.98;9.90;;;1.40;83.80;;;;;;5036100;28;20052;-56
2021/01/30 11:19:49;;;;;;;18.23;9.95;;;1.40;83.70;;;;;;5033722;28;20030;-52
2021/01/30 11:22:23;;;;;;;19.08;10.32;;;1.40;83.10;;;;;;5039848;28;20041;-53
2021/01/30 11:25:07;;;;;;;18.25;10.32;;;1.40;81.60;;;;;;5038028;28;20120;-53
2021/01/30 11:27:32;;;;;;;23.17;10.55;;;1.20;84.30;;;;;;5044138;28;20053;-53
2021/01/30 11:30:09;;;;;;;14.20;8.07;;;1.20;83.70;;;;;;5040164;28;20042;-54
2021/01/30 11:32:35;;;;;;;17.35;9.60;;;1.30;81.80;;;;;;5037099;28;20439;-55
2021/01/30 11:35:03;;;;;;;20.05;10.27;;;1.30;81.40;;;;;;5042140;28;20053;-52
2021/01/30 11:37:28;;;;;;;12.70;6.85;;;1.20;83.30;;;;;;5040085;28;20136;-52
2021/01/30 11:39:54;;;;;;;18.50;9.75;;;1.30;82.70;;;;;;5060287;28;20492;-54
2021/01/30 11:42:20;;;;;;;16.23;7.53;;;1.30;82.40;;;;;;5042957;28;20112;-55
2021/01/30 11:44:46;;;;;;;16.40;8.93;;;1.40;82.30;;;;;;5046398;28;20219;-52
2021/01/30 11:47:11;;;;;;;17.13;9.73;;;1.40;82.00;;;;;;5034997;28;20046;-54
2021/01/30 11:49:37;;;;;;;18.75;10.10;;;1.50;82.00;;;;;;5034999;28;20037;-53
2021/01/30 11:52:04;;;;;;;18.92;9.40;;;1.50;82.80;;;;;;5043181;28;20041;-54
2021/01/30 11:54:30;;;;;;;17.15;8.73;;;1.50;81.90;;;;;;5034619;28;20041;-55
2021/01/30 11:56:56;;;;;;;12.80;7.38;;;1.60;82.00;;;;;;5034326;28;20041;-56
2021/01/30 11:59:21;;;;;;;15.93;8.35;;;1.60;79.30;;;;;;5040672;28;20056;-56
2021/01/30 12:01:47;;;;;;;17.45;8.32;;;1.60;79.70;;;;;;5036500;28;20033;-56
2021/01/30 12:04:13;;;;;;;17.90;9.30;;;1.60;81.00;;;;;;5033973;28;20068;-56
2021/01/30 12:06:40;;;;;;;15.57;8.50;;;1.60;81.20;;;;;;5041042;28;20048;-57
2021/01/30 12:09:05;;;;;;;16.55;9.15;;;1.60;81.20;;;;;;5035865;28;20459;-55
2021/01/30 12:11:31;;;;;;;16.88;9.32;;;1.60;80.80;;;;;;5037728;28;20068;-55
2021/01/30 12:13:56;;;;;;;18.30;9.30;;;1.50;81.80;;;;;;5042520;28;20049;-55
2021/01/30 12:16:24;;;;;;;17.80;8.80;;;1.50;81.00;;;;;;5040717;28;20041;-55
2021/01/30 12:18:50;;;;;;;16.70;9.10;;;1.40;82.80;;;;;;5041637;28;20057;-55
2021/01/30 12:21:16;;;;;;;15.38;8.40;;;1.40;83.70;;;;;;5033815;28;20440;-54
2021/01/30 12:23:42;;;;;;;14.55;8.52;;;1.40;83.30;;;;;;5042441;28;20082;-52
2021/01/30 12:26:10;;;;;;;16.58;8.73;;;1.50;82.40;;;;;;5036699;28;20270;-53
2021/01/30 12:28:36;;;;;;;16.48;8.82;;;1.60;82.10;;;;;;5036039;28;20038;-52
2021/01/30 12:31:04;;;;;;;15.27;8.80;;;1.60;81.90;;;;;;5036954;28;20100;-51
2021/01/30 12:33:30;;;;;;;15.57;8.77;;;1.50;82.40;;;;;;5032305;28;20045;-53
2021/01/30 12:35:57;;;;;;;16.00;8.43;;;1.50;82.70;;;;;;5040097;28;20452;-54
2021/01/30 12:38:23;;;;;;;17.02;7.70;;;1.70;80.40;;;;;;5034825;28;20049;-57
2021/01/30 12:40:51;;;;;;;12.48;6.93;;;1.70;79.70;;;;;;5041535;28;20450;-55
2021/01/30 12:43:19;;;;;;;16.33;8.40;;;1.70;79.80;;;;;;5032751;28;20103;-53
2021/01/30 12:45:47;;;;;;;15.75;8.57;;;1.70;80.80;;;;;;5042114;28;20067;-56
2021/01/30 12:48:14;;;;;;;14.38;8.95;;;1.80;80.00;;;;;;5026008;28;20128;-52
2021/01/30 12:50:39;;;;;;;15.38;8.88;;;1.80;80.60;;;;;;5040034;28;20120;-60
2021/01/30 12:53:08;;;;;;;15.80;8.57;;;1.90;80.30;;;;;;5035387;28;20096;-55
2021/01/30 12:55:39;;;;;;;15.77;8.70;;;1.90;80.90;;;;;;5038340;28;20036;-52
2021/01/30 12:58:18;;;;;;;17.92;9.55;;;1.90;80.70;;;;;;5041858;28;20033;-54
2021/01/30 13:00:44;;;;;;;17.15;8.75;;;2.40;81.80;;;;;;5039472;28;20045;-52
2021/01/30 13:03:09;;;;;;;14.13;7.22;;;1.90;81.90;;;;;;5037000;28;20041;-54
2021/01/30 13:05:35;;;;;;;14.43;8.65;;;1.90;80.60;;;;;;5035542;28;20377;-54
2021/01/30 13:08:01;;;;;;;14.35;7.28;;;2.00;80.40;;;;;;5033497;28;20108;-51
2021/01/30 13:10:27;;;;;;;15.38;7.72;;;2.20;76.80;;;;;;5034213;28;20037;-54
2021/01/30 13:12:53;;;;;;;16.88;8.95;;;2.20;77.70;;;;;;5032585;28;20041;-55
2021/01/30 13:15:19;;;;;;;17.08;8.18;;;2.10;78.40;;;;;;5034821;28;20037;-54
2021/01/30 13:17:45;;;;;;;15.80;8.60;;;2.10;79.00;;;;;;5043524;28;20052;-58
2021/01/30 13:20:11;;;;;;;16.50;9.35;;;2.20;77.70;;;;;;5051064;28;20029;-52